createdAt,value
2017-08-07T00:02:15.060Z,10.03
2017-08-07T00:04:46.986Z,4.90
2017-08-07T00:07:30.767Z,5.50
2017-08-07T00:10:02.594Z,7.23
2017-08-07T00:12:33.675Z,6.83
2017-08-07T00:15:15.463Z,4.70
2017-08-07T00:17:46.562Z,3.90
2017-08-07T00:20:21.342Z,9.17
2017-08-07T00:22:52.474Z,4.70
2017-08-07T00:25:24.355Z,4.40
2017-08-07T00:27:55.435Z,4.47
2017-08-07T00:30:26.491Z,6.20
2017-08-07T00:32:57.876Z,5.23
2017-08-07T00:35:28.938Z,7.13
2017-08-07T00:38:00.785Z,9.73
2017-08-07T00:40:32.398Z,5.50
2017-08-07T00:43:04.532Z,5.13
2017-08-07T00:45:35.796Z,4.93
2017-08-07T00:48:07.073Z,6.43
2017-08-07T00:50:39.129Z,5.30
2017-08-07T00:53:10.213Z,8.30
2017-08-07T00:55:41.288Z,5.40
2017-08-07T00:58:12.930Z,7.43
2017-08-07T01:00:44.876Z,7.20
2017-08-07T01:03:16.643Z,7.20
2017-08-07T01:05:48.263Z,5.73
2017-08-07T01:08:19.387Z,4.93
2017-08-07T01:10:50.443Z,5.67
2017-08-07T01:13:21.927Z,6.30
2017-08-07T01:15:53.001Z,5.40
2017-08-07T01:18:24.096Z,5.20
2017-08-07T01:20:55.146Z,4.47
2017-08-07T01:23:26.216Z,5.40
2017-08-07T01:25:57.478Z,5.07
2017-08-07T01:28:29.300Z,6.00
2017-08-07T01:31:00.722Z,5.37
2017-08-07T01:33:32.341Z,5.73
2017-08-07T01:36:03.949Z,5.47
2017-08-07T01:38:36.023Z,6.00
2017-08-07T01:41:07.098Z,8.80
2017-08-07T01:43:38.146Z,12.03
2017-08-07T01:46:11.020Z,6.40
2017-08-07T01:48:42.110Z,6.93
2017-08-07T01:51:13.851Z,6.87
2017-08-07T01:53:44.943Z,5.83
2017-08-07T01:56:16.054Z,6.67
2017-08-07T01:58:47.146Z,9.47
2017-08-07T02:01:21.355Z,8.40
2017-08-07T02:03:53.365Z,11.73
2017-08-07T02:06:24.922Z,7.77
2017-08-07T02:08:56.909Z,9.23
2017-08-07T02:11:27.950Z,9.70
2017-08-07T02:13:59.135Z,7.70
2017-08-07T02:16:31.424Z,8.20
2017-08-07T02:19:02.464Z,15.23
2017-08-07T02:21:33.491Z,7.50
2017-08-07T02:24:05.955Z,17.23
2017-08-07T02:26:37.620Z,14.23
2017-08-07T02:29:10.812Z,58.23
2017-08-07T02:31:42.150Z,49.90
2017-08-07T02:34:13.309Z,11.00
2017-08-07T02:36:44.312Z,9.87
2017-08-07T02:39:15.379Z,14.60
2017-08-07T02:41:46.404Z,15.17
2017-08-07T02:44:17.564Z,11.13
2017-08-07T02:46:49.654Z,10.40
2017-08-07T02:49:21.492Z,9.73
2017-08-07T02:51:52.736Z,14.17
2017-08-07T02:54:23.776Z,10.97
2017-08-07T02:56:55.113Z,10.63
2017-08-07T02:59:26.162Z,10.50
2017-08-07T03:01:57.227Z,9.23
2017-08-07T03:04:28.294Z,14.23
2017-08-07T03:06:59.343Z,10.90
2017-08-07T03:09:30.403Z,9.53
2017-08-07T03:12:03.253Z,12.77
2017-08-07T03:14:34.578Z,9.83
2017-08-07T03:17:07.053Z,9.73
2017-08-07T03:19:38.141Z,10.10
2017-08-07T03:22:09.279Z,8.47
2017-08-07T03:24:40.398Z,9.63
2017-08-07T03:27:11.466Z,8.83
2017-08-07T03:29:42.545Z,8.67
2017-08-07T03:32:15.334Z,10.30
2017-08-07T03:34:47.302Z,12.50
2017-08-07T03:37:18.409Z,7.80
2017-08-07T03:39:49.521Z,9.60
2017-08-07T03:42:20.614Z,14.23
2017-08-07T03:44:51.658Z,10.00
2017-08-07T03:47:23.176Z,7.40
2017-08-07T03:49:54.221Z,14.53
2017-08-07T03:52:25.255Z,8.40
2017-08-07T03:54:56.317Z,13.37
2017-08-07T03:57:27.342Z,7.57
2017-08-07T03:59:58.612Z,11.30
2017-08-07T04:02:30.837Z,8.37
2017-08-07T04:05:04.367Z,8.93
2017-08-07T04:07:35.469Z,8.70
2017-08-07T04:12:29.375Z,7.67
2017-08-07T04:15:00.800Z,13.40
2017-08-07T04:17:32.329Z,7.00
2017-08-07T04:20:04.005Z,11.30
2017-08-07T04:22:35.091Z,7.47
2017-08-07T04:25:06.169Z,13.33
2017-08-07T04:27:37.231Z,8.40
2017-08-07T04:30:08.612Z,10.70
2017-08-07T04:32:39.667Z,7.13
2017-08-07T04:35:10.716Z,8.30
2017-08-07T04:37:42.403Z,12.47
2017-08-07T04:40:13.427Z,17.03
2017-08-07T04:42:44.504Z,16.97
2017-08-07T04:45:15.859Z,14.00
2017-08-07T04:47:46.914Z,11.00
2017-08-07T04:50:18.013Z,13.83
2017-08-07T04:52:49.526Z,14.00
2017-08-07T04:55:20.551Z,10.27
2017-08-07T04:57:51.607Z,14.50
2017-08-07T05:00:22.921Z,11.30
2017-08-07T05:02:53.978Z,9.37
2017-08-07T05:05:25.028Z,15.07
2017-08-07T05:07:56.545Z,8.97
2017-08-07T05:10:27.558Z,12.13
2017-08-07T05:12:58.645Z,10.20
2017-08-07T05:15:30.018Z,12.67
2017-08-07T05:18:01.039Z,17.07
2017-08-07T05:20:32.329Z,26.87
2017-08-07T05:23:03.409Z,21.40
2017-08-07T05:25:34.517Z,19.57
2017-08-07T05:28:06.834Z,20.13
2017-08-07T05:30:37.850Z,20.70
2017-08-07T05:33:08.995Z,13.60
2017-08-07T05:35:40.457Z,24.03
2017-08-07T05:38:11.568Z,18.00
2017-08-07T05:40:42.675Z,20.50
2017-08-07T05:43:14.196Z,22.30
2017-08-07T05:45:45.214Z,24.20
2017-08-07T05:48:16.540Z,24.50
2017-08-07T05:50:47.616Z,18.77
2017-08-07T05:53:18.628Z,16.53
2017-08-07T05:55:49.646Z,24.47
2017-08-07T05:58:20.690Z,17.23
2017-08-07T06:00:52.125Z,26.80
2017-08-07T06:03:23.190Z,32.70
2017-08-07T06:05:54.344Z,47.10
2017-08-07T06:08:25.809Z,39.80
2017-08-07T06:10:56.875Z,23.00
2017-08-07T06:13:28.248Z,18.90
2017-08-07T06:15:59.288Z,17.93
2017-08-07T06:18:30.314Z,18.20
2017-08-07T06:21:01.697Z,13.17
2017-08-07T06:23:32.770Z,17.10
2017-08-07T06:26:04.272Z,24.10
2017-08-07T06:28:35.771Z,18.80
2017-08-07T06:31:06.828Z,11.70
2017-08-07T06:33:37.854Z,9.90
2017-08-07T06:36:09.225Z,20.40
2017-08-07T06:38:40.304Z,12.40
2017-08-07T06:41:11.419Z,11.00
2017-08-07T06:43:42.513Z,20.13
2017-08-07T06:46:13.584Z,10.10
2017-08-07T06:48:44.960Z,14.70
2017-08-07T06:51:16.018Z,11.07
2017-08-07T06:53:47.030Z,12.83
2017-08-07T06:56:18.074Z,13.23
2017-08-07T06:58:49.154Z,13.53
2017-08-07T07:01:20.567Z,18.30
2017-08-07T07:03:51.619Z,17.40
2017-08-07T07:06:22.922Z,8.20
2017-08-07T07:08:53.942Z,8.80
2017-08-07T07:11:24.928Z,8.23
2017-08-07T07:13:56.444Z,11.37
2017-08-07T07:16:27.476Z,7.63
2017-08-07T07:18:58.485Z,11.37
2017-08-07T07:21:29.982Z,10.60
2017-08-07T07:24:01.040Z,12.67
2017-08-07T07:26:32.056Z,6.30
2017-08-07T07:29:03.420Z,5.90
2017-08-07T07:31:34.951Z,5.60
2017-08-07T07:34:07.251Z,6.40
2017-08-07T07:36:38.267Z,6.93
2017-08-07T07:39:09.320Z,5.40
2017-08-07T07:41:40.335Z,7.37
2017-08-07T07:44:11.400Z,9.60
2017-08-07T07:46:42.839Z,5.83
2017-08-07T07:49:13.887Z,6.57
2017-08-07T07:51:45.016Z,9.90
2017-08-07T07:54:16.474Z,8.20
2017-08-07T07:56:47.504Z,8.00
2017-08-07T07:59:18.829Z,6.20
2017-08-07T08:01:50.121Z,4.27
2017-08-07T08:04:21.194Z,13.10
2017-08-07T08:06:52.884Z,14.80
2017-08-07T08:09:23.900Z,4.40
2017-08-07T08:11:55.180Z,5.00
2017-08-07T08:14:26.627Z,5.10
2017-08-07T08:16:57.615Z,5.97
2017-08-07T08:19:28.679Z,10.10
2017-08-07T08:21:59.692Z,14.17
2017-08-07T08:27:10.824Z,4.10
2017-08-07T08:29:41.855Z,10.07
2017-08-07T08:32:13.310Z,10.07
2017-08-07T08:34:44.322Z,9.70
2017-08-07T08:37:15.355Z,17.33
2017-08-07T08:39:46.738Z,7.00
2017-08-07T08:42:17.751Z,12.60
2017-08-07T08:44:48.787Z,7.77
2017-08-07T08:47:20.140Z,4.57
2017-08-07T08:49:51.139Z,8.33
2017-08-07T08:52:22.431Z,37.30
2017-08-07T08:54:53.446Z,33.47
2017-08-07T08:57:24.504Z,13.00
2017-08-07T08:59:56.799Z,8.67
2017-08-07T09:02:27.835Z,19.77
2017-08-07T09:04:58.871Z,8.73
2017-08-07T09:07:30.248Z,8.17
2017-08-07T09:10:02.665Z,9.40
2017-08-07T09:12:33.741Z,13.17
2017-08-07T09:15:04.747Z,3.07
2017-08-07T09:17:38.656Z,6.40
2017-08-07T09:20:09.684Z,10.03
2017-08-07T09:22:40.702Z,2.90
2017-08-07T09:25:12.498Z,11.00
2017-08-07T09:27:43.507Z,8.37
2017-08-07T09:30:14.988Z,4.47
2017-08-07T09:32:46.474Z,3.57
2017-08-07T09:35:17.480Z,8.10
2017-08-07T09:37:48.500Z,3.73
2017-08-07T09:40:19.895Z,6.73
2017-08-07T09:42:50.925Z,4.93
2017-08-07T09:45:21.951Z,9.17
2017-08-07T09:47:54.473Z,16.03
2017-08-07T09:50:25.503Z,6.83
2017-08-07T09:52:56.563Z,39.97
2017-08-07T09:55:27.883Z,17.17
2017-08-07T09:57:58.920Z,6.53
2017-08-07T10:00:30.214Z,2.10
2017-08-07T10:03:01.256Z,8.23
2017-08-07T10:05:32.354Z,4.80
2017-08-07T10:08:04.228Z,13.50
2017-08-07T10:10:35.284Z,9.67
2017-08-07T10:13:06.325Z,1.50
2017-08-07T10:15:37.751Z,3.00
2017-08-07T10:18:08.792Z,4.57
2017-08-07T10:20:39.845Z,19.53
2017-08-07T10:23:11.312Z,3.83
2017-08-07T10:25:42.459Z,2.30
2017-08-07T10:28:13.608Z,10.53
2017-08-07T10:30:45.202Z,2.13
2017-08-07T10:33:16.360Z,1.30
2017-08-07T10:35:47.528Z,2.73
2017-08-07T10:38:18.992Z,5.17
2017-08-07T10:40:50.298Z,1.97
2017-08-07T10:43:21.793Z,3.03
2017-08-07T10:45:53.392Z,1.73
2017-08-07T10:48:24.748Z,2.63
2017-08-07T10:50:55.906Z,2.03
2017-08-07T10:53:27.416Z,1.43
2017-08-07T10:55:58.534Z,1.60
2017-08-07T10:58:29.684Z,1.10
2017-08-07T11:01:01.014Z,2.80
2017-08-07T11:03:32.502Z,1.33
2017-08-07T11:06:04.676Z,2.37
2017-08-07T11:08:36.229Z,1.67
2017-08-07T11:11:07.417Z,2.17
2017-08-07T11:13:38.769Z,1.70
2017-08-07T11:16:10.496Z,5.27
2017-08-07T11:18:41.718Z,2.33
2017-08-07T11:21:13.775Z,1.00
2017-08-07T11:23:45.514Z,2.00
2017-08-07T11:26:17.286Z,1.37
2017-08-07T11:28:48.673Z,2.47
2017-08-07T11:31:19.765Z,4.10
2017-08-07T11:33:50.829Z,5.20
2017-08-07T11:36:22.255Z,1.73
2017-08-07T11:38:53.339Z,3.97
2017-08-07T11:41:24.384Z,1.70
2017-08-07T11:43:55.716Z,2.50
2017-08-07T11:46:26.775Z,3.03
2017-08-07T11:48:58.001Z,2.10
2017-08-07T11:51:29.463Z,5.53
2017-08-07T11:54:00.569Z,9.03
2017-08-07T11:56:31.916Z,2.97
2017-08-07T11:59:02.993Z,3.03
2017-08-07T12:01:34.217Z,1.60
2017-08-07T12:04:06.542Z,2.30
2017-08-07T12:06:37.544Z,2.30
2017-08-07T12:09:08.548Z,1.47
2017-08-07T12:11:40.035Z,1.10
2017-08-07T12:14:11.082Z,1.53
2017-08-07T12:16:42.368Z,3.33
2017-08-07T12:19:13.428Z,5.17
2017-08-07T12:24:45.233Z,1.77
2017-08-07T12:27:16.270Z,4.50
2017-08-07T12:29:47.584Z,2.77
2017-08-07T12:32:19.023Z,2.80
2017-08-07T12:34:50.060Z,2.57
2017-08-07T12:37:21.068Z,2.43
2017-08-07T12:39:52.408Z,3.07
2017-08-07T12:42:23.457Z,1.10
2017-08-07T12:44:54.588Z,1.57
2017-08-07T12:47:25.992Z,2.40
2017-08-07T12:49:57.140Z,3.03
2017-08-07T12:52:28.440Z,11.03
2017-08-07T12:54:59.533Z,3.67
2017-08-07T12:57:30.764Z,5.60
2017-08-07T13:00:02.956Z,2.90
2017-08-07T13:02:33.988Z,1.80
2017-08-07T13:05:05.172Z,1.70
2017-08-07T13:07:36.392Z,7.77
2017-08-07T13:10:07.709Z,1.47
2017-08-07T13:12:39.337Z,4.50
2017-08-07T13:15:10.450Z,3.03
2017-08-07T13:20:02.826Z,5.60
2017-08-07T13:22:34.147Z,1.80
2017-08-07T13:25:05.324Z,1.70
2017-08-07T13:27:36.852Z,1.63
2017-08-07T13:30:07.919Z,1.87
2017-08-07T13:32:39.034Z,2.23
2017-08-07T13:35:10.572Z,7.03
2017-08-07T13:37:41.757Z,2.80
2017-08-07T13:40:13.121Z,2.50
2017-08-07T13:42:44.211Z,2.60
2017-08-07T13:45:15.314Z,4.43
2017-08-07T13:47:46.813Z,2.12
2017-08-07T13:50:18.003Z,1.27
2017-08-07T13:52:49.125Z,2.92
2017-08-07T13:55:20.606Z,1.98
2017-08-07T13:57:51.715Z,2.25
2017-08-07T14:00:23.044Z,12.18
2017-08-07T14:02:54.123Z,1.95
2017-08-07T14:05:25.340Z,2.33
2017-08-07T14:07:57.005Z,3.97
2017-08-07T14:10:28.148Z,1.70
2017-08-07T14:12:59.234Z,4.12
2017-08-07T14:15:30.968Z,1.83
2017-08-07T14:18:02.580Z,3.50
2017-08-07T14:20:34.188Z,5.60
2017-08-07T14:23:05.478Z,2.05
2017-08-07T14:25:36.737Z,7.93
2017-08-07T14:28:08.256Z,3.10
2017-08-07T14:30:39.465Z,2.55
2017-08-07T14:33:10.576Z,2.10
2017-08-07T14:35:42.328Z,3.12
2017-08-07T14:38:13.430Z,2.53
2017-08-07T14:40:44.542Z,1.80
2017-08-07T14:43:16.205Z,2.90
2017-08-07T14:45:47.378Z,2.58
2017-08-07T14:48:18.757Z,5.28
2017-08-07T14:50:49.874Z,3.62
2017-08-07T14:53:21.641Z,2.78
2017-08-07T14:55:53.377Z,3.33
2017-08-07T14:58:24.563Z,1.92
2017-08-07T15:00:55.787Z,1.92
2017-08-07T15:03:27.604Z,7.12
2017-08-07T15:05:58.713Z,2.28
2017-08-07T15:08:30.034Z,2.45
2017-08-07T15:11:01.179Z,4.45
2017-08-07T15:13:32.194Z,2.53
2017-08-07T15:16:03.970Z,2.83
2017-08-07T15:18:34.982Z,3.33
2017-08-07T15:21:06.530Z,2.50
2017-08-07T15:23:37.530Z,4.10
2017-08-07T15:26:08.601Z,3.00
2017-08-07T15:28:39.696Z,8.18
2017-08-07T15:31:10.703Z,2.55
2017-08-07T15:33:42.118Z,2.80
2017-08-07T15:36:13.145Z,2.47
2017-08-07T15:38:44.148Z,2.53
2017-08-07T15:41:15.171Z,3.00
2017-08-07T15:43:46.176Z,7.00
2017-08-07T15:46:17.194Z,6.93
2017-08-07T15:48:48.720Z,2.85
2017-08-07T15:51:19.786Z,5.87
2017-08-07T15:53:50.877Z,3.83
2017-08-07T15:56:22.234Z,2.58
2017-08-07T15:58:53.265Z,6.22
2017-08-07T16:01:24.655Z,3.97
2017-08-07T16:03:55.711Z,2.78
2017-08-07T16:06:27.104Z,4.15
2017-08-07T16:08:58.160Z,4.25
2017-08-07T16:11:29.231Z,2.58
2017-08-07T16:14:00.832Z,3.50
2017-08-07T16:16:31.877Z,2.53
2017-08-07T16:19:03.221Z,4.35
2017-08-07T16:21:34.240Z,2.60
2017-08-07T16:24:06.037Z,4.95
2017-08-07T16:26:37.382Z,4.03
2017-08-07T16:29:08.393Z,5.22
2017-08-07T16:31:39.459Z,4.37
2017-08-07T16:34:10.524Z,2.90
2017-08-07T16:36:41.599Z,2.97
2017-08-07T16:39:12.983Z,3.40
2017-08-07T16:41:43.989Z,1.90
2017-08-07T16:44:15.055Z,3.08
2017-08-07T16:46:46.140Z,6.55
2017-08-07T16:49:17.172Z,5.22
2017-08-07T16:51:49.685Z,6.62
2017-08-07T16:54:20.805Z,4.25
2017-08-07T16:56:51.842Z,5.60
2017-08-07T16:59:23.227Z,9.23
2017-08-07T17:01:54.319Z,5.57
2017-08-07T17:04:25.426Z,7.47
2017-08-07T17:06:57.077Z,3.87
2017-08-07T17:09:28.189Z,3.97
2017-08-07T17:11:59.240Z,13.13
2017-08-07T17:14:30.604Z,3.30
2017-08-07T17:17:01.706Z,5.17
2017-08-07T17:19:33.107Z,6.63
2017-08-07T17:22:04.936Z,1.80
2017-08-07T17:24:36.052Z,2.73
2017-08-07T17:27:07.158Z,4.27
2017-08-07T17:29:38.210Z,9.43
2017-08-07T17:32:09.755Z,3.53
2017-08-07T17:34:40.819Z,4.13
2017-08-07T17:37:11.840Z,10.07
2017-08-07T17:39:42.915Z,4.37
2017-08-07T17:42:13.948Z,3.13
2017-08-07T17:44:45.232Z,5.57
2017-08-07T17:47:16.243Z,2.87
2017-08-07T17:49:47.344Z,29.83
2017-08-07T17:52:18.352Z,17.53
2017-08-07T17:54:49.428Z,13.63
2017-08-07T17:57:20.949Z,10.37
2017-08-07T17:59:52.045Z,23.77
2017-08-07T18:02:23.106Z,22.17
2017-08-07T18:04:54.628Z,33.33
2017-08-07T18:07:25.747Z,15.70
2017-08-07T18:09:57.135Z,19.43
2017-08-07T18:12:29.367Z,22.70
2017-08-07T18:15:00.483Z,12.07
2017-08-07T18:17:32.960Z,10.90
2017-08-07T18:20:04.517Z,19.67
2017-08-07T18:22:35.578Z,12.70
2017-08-07T18:25:07.160Z,8.23
2017-08-07T18:27:38.263Z,14.13
2017-08-07T18:30:09.557Z,9.67
2017-08-07T18:32:40.633Z,18.50
2017-08-07T18:35:11.735Z,9.70
2017-08-07T18:37:43.105Z,14.23
2017-08-07T18:40:14.270Z,14.33
2017-08-07T18:42:45.281Z,12.13
2017-08-07T18:45:16.333Z,14.30
2017-08-07T18:47:47.490Z,12.23
2017-08-07T18:50:19.017Z,9.63
2017-08-07T18:52:50.066Z,14.80
2017-08-07T18:55:21.533Z,7.50
2017-08-07T18:57:52.750Z,12.40
2017-08-07T19:00:23.834Z,8.77
2017-08-07T19:02:55.367Z,16.87
2017-08-07T19:05:26.519Z,15.60
2017-08-07T19:07:57.654Z,15.57
2017-08-07T19:10:28.864Z,15.80
2017-08-07T19:12:59.975Z,11.13
2017-08-07T19:15:31.347Z,12.97
2017-08-07T19:18:02.935Z,10.33
2017-08-07T19:20:34.308Z,8.57
2017-08-07T19:23:05.607Z,14.27
2017-08-07T19:25:36.807Z,10.70
2017-08-07T19:28:08.309Z,7.70
2017-08-07T19:30:39.318Z,10.33
2017-08-07T19:33:10.354Z,7.60
2017-08-07T19:35:41.746Z,3.90
2017-08-07T19:38:12.824Z,7.80
2017-08-07T19:40:43.857Z,7.10
2017-08-07T19:43:16.209Z,3.17
2017-08-07T19:45:47.252Z,4.03
2017-08-07T19:48:19.124Z,10.23
2017-08-07T19:50:50.150Z,3.43
2017-08-07T19:53:21.291Z,4.10
2017-08-07T19:55:52.827Z,5.53
2017-08-07T19:58:23.882Z,3.23
2017-08-07T20:00:55.045Z,2.97
2017-08-07T20:03:26.118Z,4.80
2017-08-07T20:05:57.176Z,4.73
2017-08-07T20:08:28.854Z,11.97
2017-08-07T20:10:59.928Z,7.57
2017-08-07T20:13:30.949Z,11.93
2017-08-07T20:16:02.870Z,3.53
2017-08-07T20:18:33.903Z,5.70
2017-08-07T20:21:05.446Z,5.73
2017-08-07T20:23:36.502Z,3.27
2017-08-07T20:26:07.572Z,3.87
2017-08-07T20:28:39.126Z,4.33
2017-08-07T20:31:10.222Z,4.93
2017-08-07T20:33:41.541Z,3.83
2017-08-07T20:36:12.660Z,10.20
2017-08-07T20:38:43.713Z,3.10
2017-08-07T20:41:15.151Z,3.40
2017-08-07T20:43:46.161Z,5.70
2017-08-07T20:46:17.296Z,8.73
2017-08-07T20:48:49.358Z,10.67
2017-08-07T20:51:20.457Z,5.03
2017-08-07T20:53:51.520Z,3.40
2017-08-07T20:56:22.968Z,9.07
2017-08-07T20:58:54.000Z,14.53
2017-08-07T21:01:25.002Z,9.40
2017-08-07T21:03:56.435Z,7.93
2017-08-07T21:06:27.491Z,6.83
2017-08-07T21:08:58.525Z,12.97
2017-08-07T21:11:30.067Z,12.60
2017-08-07T21:14:01.109Z,5.73
2017-08-07T21:16:32.159Z,7.20
2017-08-07T21:19:03.555Z,9.30
2017-08-07T21:21:34.601Z,13.90
2017-08-07T21:24:06.398Z,8.13
2017-08-07T21:26:37.423Z,7.70
2017-08-07T21:29:08.531Z,7.53
2017-08-07T21:31:39.847Z,10.67
2017-08-07T21:34:10.902Z,5.47
2017-08-07T21:36:41.938Z,7.97
2017-08-07T21:39:13.346Z,4.33
2017-08-07T21:41:44.352Z,4.13
2017-08-07T21:44:15.468Z,14.33
2017-08-07T21:46:46.951Z,3.80
2017-08-07T21:49:17.967Z,4.70
2017-08-07T21:51:49.250Z,4.30
2017-08-07T21:54:20.311Z,4.10
2017-08-07T21:56:51.303Z,9.30
2017-08-07T21:59:22.821Z,7.37
2017-08-07T22:01:53.841Z,4.53
2017-08-07T22:04:24.888Z,10.80
2017-08-07T22:06:56.275Z,5.97
2017-08-07T22:09:27.292Z,7.50
2017-08-07T22:11:58.292Z,7.03
2017-08-07T22:14:29.314Z,7.70
2017-08-07T22:17:00.361Z,10.30
2017-08-07T22:19:31.870Z,11.37
2017-08-07T22:22:04.709Z,9.00
2017-08-07T22:24:35.721Z,5.50
2017-08-07T22:27:06.820Z,7.53
2017-08-07T22:29:37.880Z,13.60
2017-08-07T22:32:09.471Z,11.43
2017-08-07T22:34:40.540Z,13.87
2017-08-07T22:37:11.575Z,17.37
2017-08-07T22:39:42.639Z,8.90
2017-08-07T22:42:13.709Z,10.60
2017-08-07T22:44:45.132Z,6.37
2017-08-07T22:47:16.151Z,11.43
2017-08-07T22:49:47.187Z,6.03
2017-08-07T22:52:18.498Z,9.03
2017-08-07T22:54:49.490Z,7.40
2017-08-07T22:57:20.522Z,6.60
2017-08-07T22:59:51.854Z,8.73
2017-08-07T23:02:23.047Z,4.83
2017-08-07T23:04:54.154Z,4.30
2017-08-07T23:07:25.622Z,7.37
2017-08-07T23:09:56.665Z,9.37
2017-08-07T23:12:27.725Z,8.17
2017-08-07T23:14:59.309Z,4.70
2017-08-07T23:17:30.435Z,5.43
2017-08-07T23:20:03.111Z,4.97
2017-08-07T23:22:34.580Z,6.57
2017-08-07T23:25:05.579Z,4.20
2017-08-07T23:27:36.959Z,4.53
2017-08-07T23:30:08.699Z,8.50
2017-08-07T23:32:39.771Z,4.60
2017-08-07T23:35:10.843Z,11.50
2017-08-07T23:37:42.259Z,8.30
2017-08-07T23:40:13.335Z,10.03
2017-08-07T23:42:44.464Z,6.33
2017-08-07T23:45:15.481Z,5.10
2017-08-07T23:47:46.538Z,4.33
2017-08-07T23:50:17.957Z,7.93
2017-08-07T23:52:49.041Z,9.90
2017-08-07T23:55:20.434Z,8.73
2017-08-07T23:57:51.584Z,8.03
